Alvorada d'Oeste, Brazil
Current Conditions -  °F | °C
As of 12:00 AM on Monday 29 Dec 2014 (Local Time) from SBVH Reporting Station
Clear Clear  
Wind Chill: 70°   Ceiling: Unl
Heat Index: 70°   Visibility: 6mi
Dew Point: 70°   Wind: 3mph
Humidity: 100%   Direction: 330°NNW
Pressure: 29.97"   Gusts: NA
Location:  11.34°S, 62.29°W
Report Text: SBVH 290400Z 33003KT CAVOK 21/21 Q1015
Loading
Personal Weather Stations






























Interactive Weather Map New forecast layout! Learn more

10-Day Weather Forecast

Advertisements
Track Severe Weather on mobile